Goodrich, MI (48438)

9:06 PM EDT on August 31, 2016 (GMT -0400)
Wild Oats Farm | | Change Station

Elev 879 ft 42.93 °N, 83.49 °W | Updated 3 seconds ago

Clear
Clear
63.1 °F
Feels Like 63.1 °F
N
2.3
Wind Variable Wind from NE
Gusts 2.3 mph

Today
High -- | Low -- °F
--% Chance of Precip.
Yesterday
High -- | Low -- °F
Precip. -- in
Pressure 30.03 in
Visibility 10.0 miles
Clouds Clear
Dew Point 57 °F
Humidity 81%
Rainfall 0.00 in
Snow Depth Not available.
6:58 AM 8:09 PM
Waning Crescent, 0% visible
METAR KFNT 010053Z 03004KT 10SM CLR 19/12 A3004 RMK AO2 SLP169 T01890117
Pressure 30.03 in
Visibility 10.0 miles
Clouds Clear
Dew Point 57 °F
Humidity 81%
Rainfall 0.00 in
Snow Depth Not available.
6:58 AM 8:09 PM
Waning Crescent, 0% visible
METAR KFNT 010053Z 03004KT 10SM CLR 19/12 A3004 RMK AO2 SLP169 T01890117

10-Day Weather Forecast

Almanac

Astronomy

Aug. 31, 2016 Rise Set
Actual Time
Civil Twilight
Nautical Twilight
Astronomical Twilight
Moon
Length of Visible Light
Length of Day
Tomorrow will be .
, % of the Moon is Illuminated

Today's Extremes

State Highs State Lows

Community

WunderPhotos

Upload Photos

1,936,256 photos uploaded!

WunderBlog® & News

Nearby

Air Quality

  Air Quality AQ Index Pollutant
Not available.

Snow Depth

Station Depth Elevation

Earthquake Activity

City Distance Mag. Time & Date
Minimum magnitude displayed is 2.5.

Coastal Water Temperatures

Place Temperature

Stations

Nearby Weather Stations

Station Location Temp. Windchill Dew Point Humidity Wind Precip. Elev Updated Type
                   

Watches & Warnings

There are currently no watches in effect.